createdAt,value
2022-11-26T00:00:59.432Z,9.40
2022-11-26T00:02:22.847Z,9.40
2022-11-26T00:03:43.743Z,9.40
2022-11-26T00:05:04.975Z,9.30
2022-11-26T00:06:29.188Z,9.20
2022-11-26T00:07:54.926Z,9.20
2022-11-26T00:09:18.067Z,9.20
2022-11-26T00:10:38.904Z,9.30
2022-11-26T00:11:59.545Z,9.40
2022-11-26T00:13:21.821Z,9.40
2022-11-26T00:14:42.285Z,9.40
2022-11-26T00:16:03.154Z,9.40
2022-11-26T00:17:23.748Z,9.40
2022-11-26T00:18:44.476Z,9.40
2022-11-26T00:20:06.257Z,9.40
2022-11-26T00:21:26.855Z,9.40
2022-11-26T00:22:49.801Z,9.50
2022-11-26T00:24:24.061Z,9.50
2022-11-26T00:25:46.638Z,9.50
2022-11-26T00:27:09.901Z,9.50
2022-11-26T00:28:32.097Z,9.50
2022-11-26T00:29:52.986Z,9.50
2022-11-26T00:31:15.879Z,9.60
2022-11-26T00:32:36.648Z,9.60
2022-11-26T00:33:57.232Z,9.60
2022-11-26T00:35:18.214Z,9.50
2022-11-26T00:36:38.801Z,9.50
2022-11-26T00:37:59.501Z,9.40
2022-11-26T00:39:23.772Z,9.30
2022-11-26T00:40:44.293Z,9.20
2022-11-26T00:42:05.423Z,9.20
2022-11-26T00:43:25.757Z,9.20
2022-11-26T00:44:46.264Z,9.30
2022-11-26T00:46:10.415Z,9.30
2022-11-26T00:47:31.357Z,9.30
2022-11-26T00:48:51.723Z,9.30
2022-11-26T00:50:17.978Z,9.30
2022-11-26T00:51:38.763Z,9.30
2022-11-26T00:52:59.157Z,9.30
2022-11-26T00:54:21.869Z,9.30
2022-11-26T00:55:44.668Z,9.30
2022-11-26T00:57:05.377Z,9.30
2022-11-26T00:58:28.421Z,9.20
2022-11-26T00:59:48.651Z,9.30
2022-11-26T01:01:11.526Z,9.30
2022-11-26T01:02:32.258Z,9.20
2022-11-26T01:03:53.150Z,9.30
2022-11-26T01:05:13.812Z,9.20
2022-11-26T01:06:35.751Z,9.20
2022-11-26T01:07:58.753Z,9.30
2022-11-26T01:09:22.059Z,9.30
2022-11-26T01:10:42.341Z,9.30
2022-11-26T01:12:02.622Z,9.30
2022-11-26T01:13:23.428Z,9.20
2022-11-26T01:14:43.890Z,9.20
2022-11-26T01:16:12.290Z,9.20
2022-11-26T01:17:33.047Z,9.10
2022-11-26T01:18:56.359Z,9.10
2022-11-26T01:20:27.703Z,9.10
2022-11-26T01:21:48.063Z,9.10
2022-11-26T01:23:11.000Z,9.10
2022-11-26T01:24:32.985Z,9.10
2022-11-26T01:25:53.484Z,9.10
2022-11-26T01:27:14.212Z,9.10
2022-11-26T01:28:35.012Z,9.10
2022-11-26T01:29:55.646Z,9.10
2022-11-26T01:31:17.596Z,9.10
2022-11-26T01:32:38.291Z,9.10
2022-11-26T01:33:58.607Z,9.10
2022-11-26T01:35:21.123Z,9.10
2022-11-26T01:36:41.855Z,9.00
2022-11-26T01:38:02.544Z,9.10
2022-11-26T01:39:23.840Z,9.00
2022-11-26T01:41:01.831Z,9.00
2022-11-26T01:42:25.475Z,9.10
2022-11-26T01:43:48.088Z,9.00
2022-11-26T01:45:15.431Z,9.10
2022-11-26T01:46:37.063Z,9.10
2022-11-26T01:47:57.324Z,9.00
2022-11-26T01:49:19.563Z,9.00
2022-11-26T01:50:52.852Z,9.00
2022-11-26T01:52:17.763Z,9.00
2022-11-26T01:53:46.885Z,9.00
2022-11-26T01:55:10.519Z,9.00
2022-11-26T01:56:35.921Z,9.00
2022-11-26T01:57:56.764Z,9.00
2022-11-26T01:59:19.850Z,9.00
2022-11-26T02:00:41.229Z,9.00
2022-11-26T02:02:02.126Z,9.00
2022-11-26T02:03:23.338Z,9.00
2022-11-26T02:04:50.548Z,9.00
2022-11-26T02:06:15.569Z,9.00
2022-11-26T02:07:37.068Z,9.00
2022-11-26T02:08:59.207Z,9.00
2022-11-26T02:10:20.064Z,9.10
2022-11-26T02:11:42.239Z,9.10
2022-11-26T02:13:03.325Z,9.10
2022-11-26T02:14:26.178Z,9.10
2022-11-26T02:15:52.416Z,9.00
2022-11-26T02:17:20.559Z,9.00
2022-11-26T02:18:46.404Z,9.10
2022-11-26T02:20:46.104Z,9.10
2022-11-26T02:22:17.099Z,9.10
2022-11-26T02:24:09.140Z,9.10
2022-11-26T02:25:39.621Z,9.10
2022-11-26T02:27:14.683Z,9.10
2022-11-26T02:28:48.550Z,9.10
2022-11-26T02:30:11.639Z,9.10
2022-11-26T02:31:36.187Z,9.10
2022-11-26T02:33:00.166Z,9.20
2022-11-26T02:34:25.176Z,9.20
2022-11-26T02:35:47.544Z,9.20
2022-11-26T02:37:10.971Z,9.20
2022-11-26T02:38:32.281Z,9.20
2022-11-26T02:39:53.066Z,9.20
2022-11-26T02:41:13.567Z,9.20
2022-11-26T02:42:35.261Z,9.10
2022-11-26T02:43:55.793Z,9.20
2022-11-26T02:45:19.649Z,9.20
2022-11-26T02:46:41.918Z,9.20
2022-11-26T02:48:03.916Z,9.20
2022-11-26T02:49:25.404Z,9.10
2022-11-26T02:50:48.247Z,9.10
2022-11-26T02:52:09.914Z,9.10
2022-11-26T02:53:33.671Z,9.10
2022-11-26T02:54:55.682Z,9.10
2022-11-26T02:56:20.554Z,9.20
2022-11-26T02:57:45.195Z,9.10
2022-11-26T02:59:06.110Z,9.20
2022-11-26T03:00:28.010Z,9.10
2022-11-26T03:01:51.895Z,9.20
2022-11-26T03:03:14.560Z,9.10
2022-11-26T03:04:39.366Z,9.10
2022-11-26T03:06:05.175Z,9.10
2022-11-26T03:07:26.347Z,9.10
2022-11-26T03:08:47.247Z,9.20
2022-11-26T03:10:08.414Z,9.20
2022-11-26T03:11:28.784Z,9.20
2022-11-26T03:12:49.261Z,9.20
2022-11-26T03:14:09.961Z,9.20
2022-11-26T03:15:31.868Z,9.20
2022-11-26T03:16:52.515Z,9.20
2022-11-26T03:18:13.392Z,9.20
2022-11-26T03:19:33.999Z,9.20
2022-11-26T03:20:54.262Z,9.20
2022-11-26T03:22:15.329Z,9.20
2022-11-26T03:23:35.926Z,9.20
2022-11-26T03:24:56.581Z,9.30
2022-11-26T03:26:16.944Z,9.20
2022-11-26T03:27:37.744Z,9.20
2022-11-26T03:28:58.164Z,9.20
2022-11-26T03:30:18.850Z,9.20
2022-11-26T03:31:40.576Z,9.30
2022-11-26T03:33:01.008Z,9.30
2022-11-26T03:34:21.823Z,9.30
2022-11-26T03:35:42.274Z,9.30
2022-11-26T03:37:02.469Z,9.20
2022-11-26T03:38:22.922Z,9.30
2022-11-26T03:39:43.599Z,9.30
2022-11-26T03:41:05.453Z,9.30
2022-11-26T03:42:26.264Z,9.30
2022-11-26T03:43:46.804Z,9.30
2022-11-26T03:45:08.086Z,9.30
2022-11-26T03:46:28.676Z,9.30
2022-11-26T03:47:50.526Z,9.30
2022-11-26T03:49:10.920Z,9.30
2022-11-26T03:50:31.281Z,9.20
2022-11-26T03:51:52.083Z,9.30
2022-11-26T03:53:12.630Z,9.30
2022-11-26T03:54:33.281Z,9.30
2022-11-26T03:55:54.028Z,9.30
2022-11-26T03:57:14.994Z,9.30
2022-11-26T03:58:36.005Z,9.30
2022-11-26T03:59:56.514Z,9.30
2022-11-26T04:01:17.071Z,9.30
2022-11-26T04:02:37.892Z,9.30
2022-11-26T04:03:59.969Z,9.30
2022-11-26T04:05:20.986Z,9.30
2022-11-26T04:06:41.575Z,9.30
2022-11-26T04:08:02.088Z,9.30
2022-11-26T04:09:22.685Z,9.30
2022-11-26T04:10:43.180Z,9.30
2022-11-26T04:12:04.194Z,9.30
2022-11-26T04:13:24.771Z,9.30
2022-11-26T04:14:45.328Z,9.30
2022-11-26T04:16:06.584Z,9.30
2022-11-26T04:17:27.122Z,9.30
2022-11-26T04:18:48.030Z,9.30
2022-11-26T04:20:10.967Z,9.20
2022-11-26T04:21:31.428Z,9.30
2022-11-26T04:22:51.843Z,9.30
2022-11-26T04:24:12.375Z,9.30
2022-11-26T04:25:33.036Z,9.30
2022-11-26T04:26:53.480Z,9.30
2022-11-26T04:28:13.970Z,9.30
2022-11-26T04:29:34.237Z,9.30
2022-11-26T04:30:54.552Z,9.30
2022-11-26T04:32:15.482Z,9.30
2022-11-26T04:33:35.761Z,9.30
2022-11-26T04:34:56.196Z,9.30
2022-11-26T04:36:18.330Z,9.30
2022-11-26T04:37:38.838Z,9.30
2022-11-26T04:38:59.494Z,9.30
2022-11-26T04:40:19.973Z,9.30
2022-11-26T04:41:40.519Z,9.30
2022-11-26T04:43:01.240Z,9.20
2022-11-26T04:44:22.545Z,9.10
2022-11-26T04:45:43.037Z,9.10
2022-11-26T04:47:03.712Z,9.20
2022-11-26T04:48:24.271Z,9.20
2022-11-26T04:49:44.876Z,9.10
2022-11-26T04:51:05.805Z,9.10
2022-11-26T04:52:27.486Z,9.10
2022-11-26T04:53:48.135Z,9.10
2022-11-26T04:55:09.213Z,9.20
2022-11-26T04:56:29.643Z,9.20
2022-11-26T04:57:50.251Z,9.20
2022-11-26T04:59:10.990Z,9.20
2022-11-26T05:00:31.816Z,9.20
2022-11-26T05:01:52.434Z,9.10
2022-11-26T05:03:13.114Z,9.20
2022-11-26T05:04:33.812Z,9.10
2022-11-26T05:05:54.541Z,9.10
2022-11-26T05:07:15.066Z,9.10
2022-11-26T05:08:36.948Z,9.10
2022-11-26T05:09:57.464Z,9.10
2022-11-26T05:11:18.227Z,9.00
2022-11-26T05:12:39.216Z,9.00
2022-11-26T05:13:59.794Z,9.10
2022-11-26T05:15:20.633Z,9.10
2022-11-26T05:16:41.479Z,9.10
2022-11-26T05:18:02.214Z,9.10
2022-11-26T05:19:22.737Z,9.20
2022-11-26T05:20:43.266Z,9.10
2022-11-26T05:22:03.543Z,9.20
2022-11-26T05:23:24.333Z,9.10
2022-11-26T05:24:46.136Z,9.20
2022-11-26T05:26:06.781Z,9.20
2022-11-26T05:27:27.256Z,9.20
2022-11-26T05:28:47.584Z,9.20
2022-11-26T05:30:09.056Z,9.10
2022-11-26T05:31:29.346Z,9.10
2022-11-26T05:32:49.587Z,9.10
2022-11-26T05:34:10.288Z,9.10
2022-11-26T05:35:30.792Z,9.00
2022-11-26T05:36:50.972Z,9.10
2022-11-26T05:38:11.831Z,9.10
2022-11-26T05:39:32.528Z,9.10
2022-11-26T05:40:54.509Z,9.10
2022-11-26T05:42:15.018Z,9.10
2022-11-26T05:43:35.360Z,9.10
2022-11-26T05:44:56.159Z,9.00
2022-11-26T05:46:17.007Z,9.00
2022-11-26T05:47:37.675Z,9.00
2022-11-26T05:48:58.252Z,9.10
2022-11-26T05:50:18.908Z,9.10
2022-11-26T05:51:39.535Z,9.10
2022-11-26T05:53:00.162Z,9.10
2022-11-26T05:54:20.878Z,9.00
2022-11-26T05:55:41.470Z,9.00
2022-11-26T05:57:03.492Z,9.10
2022-11-26T05:58:24.230Z,9.10
2022-11-26T05:59:44.857Z,9.00
2022-11-26T06:01:07.609Z,9.00
2022-11-26T06:02:28.887Z,8.90
2022-11-26T06:03:49.614Z,8.90
2022-11-26T06:05:10.409Z,8.90
2022-11-26T06:06:30.756Z,8.90
2022-11-26T06:07:51.419Z,8.90
2022-11-26T06:09:12.036Z,9.00
2022-11-26T06:10:32.672Z,9.00
2022-11-26T06:11:53.221Z,9.00
2022-11-26T06:13:14.932Z,9.00
2022-11-26T06:14:39.119Z,9.00
2022-11-26T06:16:02.504Z,9.00
2022-11-26T06:17:23.238Z,9.00
2022-11-26T06:18:43.566Z,9.00
2022-11-26T06:20:05.688Z,9.00
2022-11-26T06:21:26.353Z,9.10
2022-11-26T06:22:47.284Z,9.10
2022-11-26T06:24:08.112Z,9.10
2022-11-26T06:25:28.786Z,9.00
2022-11-26T06:26:49.187Z,9.10
2022-11-26T06:28:09.957Z,9.10
2022-11-26T06:29:32.424Z,9.10
2022-11-26T06:30:53.085Z,9.10
2022-11-26T06:32:13.448Z,9.10
2022-11-26T06:33:35.103Z,9.10
2022-11-26T06:34:55.706Z,9.10
2022-11-26T06:36:16.138Z,9.10
2022-11-26T06:37:37.024Z,9.10
2022-11-26T06:38:57.419Z,9.10
2022-11-26T06:40:19.762Z,9.10
2022-11-26T06:41:39.996Z,9.10
2022-11-26T06:43:00.446Z,9.10
2022-11-26T06:44:20.812Z,9.10
2022-11-26T06:45:42.539Z,9.10
2022-11-26T06:47:02.802Z,9.00
2022-11-26T06:48:24.357Z,9.10
2022-11-26T06:49:44.662Z,9.10
2022-11-26T06:51:06.112Z,9.10
2022-11-26T06:52:26.791Z,9.10
2022-11-26T06:53:47.424Z,9.10
2022-11-26T06:55:08.811Z,9.10
2022-11-26T06:56:29.196Z,9.10
2022-11-26T06:57:50.236Z,9.10
2022-11-26T06:59:10.866Z,9.10
2022-11-26T07:00:31.281Z,9.20
2022-11-26T07:01:53.276Z,9.20
2022-11-26T07:03:14.048Z,9.20
2022-11-26T07:04:34.721Z,9.30
2022-11-26T07:05:55.345Z,9.20
2022-11-26T07:07:16.346Z,9.30
2022-11-26T07:08:36.992Z,9.30
2022-11-26T07:09:57.646Z,9.30
2022-11-26T07:11:19.963Z,9.30
2022-11-26T07:12:53.808Z,9.30
2022-11-26T07:14:14.308Z,9.30
2022-11-26T07:15:34.637Z,9.40
2022-11-26T07:16:57.189Z,9.40
2022-11-26T07:18:17.397Z,9.40
2022-11-26T07:19:37.804Z,9.40
2022-11-26T07:21:03.830Z,9.40
2022-11-26T07:22:24.472Z,9.40
2022-11-26T07:23:44.787Z,9.40
2022-11-26T07:25:10.829Z,9.30
2022-11-26T07:26:33.090Z,9.30
2022-11-26T07:27:53.661Z,9.40
2022-11-26T07:29:13.922Z,9.40
2022-11-26T07:30:34.285Z,9.40
2022-11-26T07:31:54.828Z,9.40
2022-11-26T07:33:16.637Z,9.40
2022-11-26T07:34:37.513Z,9.50
2022-11-26T07:35:59.089Z,9.50
2022-11-26T07:37:19.523Z,9.60
2022-11-26T07:38:39.929Z,9.60
2022-11-26T07:40:00.651Z,9.60
2022-11-26T07:41:21.233Z,9.60
2022-11-26T07:42:41.983Z,9.60
2022-11-26T07:44:02.405Z,9.60
2022-11-26T07:45:22.809Z,9.60
2022-11-26T07:46:43.270Z,9.60
2022-11-26T07:48:03.791Z,9.60
2022-11-26T07:49:25.617Z,9.60
2022-11-26T07:50:46.397Z,9.60
2022-11-26T07:52:06.996Z,9.60
2022-11-26T07:53:28.392Z,9.70
2022-11-26T07:54:48.839Z,9.70
2022-11-26T07:56:09.494Z,9.70
2022-11-26T07:57:30.141Z,9.60
2022-11-26T07:58:51.148Z,9.70
2022-11-26T08:00:12.686Z,9.60
2022-11-26T08:01:33.814Z,9.60
2022-11-26T08:02:54.476Z,9.60
2022-11-26T08:04:15.227Z,9.70
2022-11-26T08:05:40.957Z,9.60
2022-11-26T08:07:01.447Z,9.60
2022-11-26T08:08:21.858Z,9.60
2022-11-26T08:09:42.434Z,9.70
2022-11-26T08:11:03.691Z,9.70
2022-11-26T08:12:24.659Z,9.70
2022-11-26T08:13:45.446Z,9.70
2022-11-26T08:15:06.608Z,9.70
2022-11-26T08:16:28.778Z,9.70
2022-11-26T08:17:49.938Z,9.70
2022-11-26T08:19:13.010Z,9.70
2022-11-26T08:20:33.812Z,9.70
2022-11-26T08:21:55.677Z,9.70
2022-11-26T08:23:15.840Z,9.70
2022-11-26T08:24:36.727Z,9.70
2022-11-26T08:27:38.072Z,9.70
2022-11-26T08:28:59.723Z,9.70
2022-11-26T08:30:20.233Z,9.70
2022-11-26T08:31:45.642Z,9.80
2022-11-26T08:33:06.764Z,9.70
2022-11-26T08:34:27.175Z,9.80
2022-11-26T08:36:06.219Z,9.90
2022-11-26T08:37:29.215Z,9.80
2022-11-26T08:38:49.748Z,9.80
2022-11-26T08:40:13.866Z,9.70
2022-11-26T08:41:34.424Z,9.80
2022-11-26T08:42:54.668Z,9.70
2022-11-26T08:44:15.591Z,9.70
2022-11-26T08:45:35.862Z,9.70
2022-11-26T08:46:56.204Z,9.80
2022-11-26T08:48:16.429Z,9.70
2022-11-26T08:49:37.018Z,9.70
2022-11-26T08:50:58.217Z,9.80
2022-11-26T08:52:18.552Z,9.80
2022-11-26T08:53:40.494Z,9.80
2022-11-26T08:55:01.061Z,9.80
2022-11-26T08:56:21.681Z,9.90
2022-11-26T08:57:42.911Z,9.90
2022-11-26T08:59:03.676Z,9.90
2022-11-26T09:00:24.379Z,9.90
2022-11-26T09:01:45.016Z,9.90
2022-11-26T09:03:05.596Z,9.90
2022-11-26T09:04:25.956Z,10.00
2022-11-26T09:05:46.659Z,9.90
2022-11-26T09:07:07.447Z,9.90
2022-11-26T09:08:27.757Z,9.90
2022-11-26T09:09:49.661Z,10.00
2022-11-26T09:11:10.278Z,10.00
2022-11-26T09:12:31.424Z,10.00
2022-11-26T09:13:52.208Z,10.00
2022-11-26T09:15:12.999Z,10.00
2022-11-26T09:16:33.649Z,10.00
2022-11-26T09:17:54.032Z,10.00
2022-11-26T09:19:15.094Z,10.00
2022-11-26T09:20:35.346Z,10.00
2022-11-26T09:21:56.171Z,10.00
2022-11-26T09:23:16.446Z,10.00
2022-11-26T09:24:36.933Z,10.10
2022-11-26T09:25:59.297Z,10.20
2022-11-26T09:27:19.677Z,10.10
2022-11-26T09:28:43.717Z,10.10
2022-11-26T09:30:05.172Z,10.20
2022-11-26T09:31:26.153Z,10.20
2022-11-26T09:32:46.632Z,10.30
2022-11-26T09:34:07.264Z,10.30
2022-11-26T09:35:27.957Z,10.30
2022-11-26T09:36:48.250Z,10.30
2022-11-26T09:38:08.850Z,10.30
2022-11-26T09:39:29.612Z,10.30
2022-11-26T09:40:54.972Z,10.30
2022-11-26T09:42:26.192Z,10.30
2022-11-26T09:43:59.216Z,10.40
2022-11-26T09:45:33.043Z,10.50
2022-11-26T09:47:12.395Z,10.40
2022-11-26T09:48:34.126Z,10.40
2022-11-26T09:49:59.606Z,10.40
2022-11-26T09:51:20.821Z,10.40
2022-11-26T09:52:46.403Z,10.40
2022-11-26T09:54:06.808Z,10.40
2022-11-26T09:55:30.303Z,10.40
2022-11-26T09:56:54.839Z,10.40
2022-11-26T09:58:25.321Z,10.50
2022-11-26T09:59:48.661Z,10.50
2022-11-26T10:01:16.235Z,10.50
2022-11-26T10:02:38.809Z,10.50
2022-11-26T10:03:59.792Z,10.50
2022-11-26T10:05:23.323Z,10.50
2022-11-26T10:06:51.628Z,10.50
2022-11-26T10:08:28.863Z,10.40
2022-11-26T10:09:57.040Z,10.50
2022-11-26T10:11:21.859Z,10.50
2022-11-26T10:13:17.468Z,10.50
2022-11-26T10:14:47.813Z,10.60
2022-11-26T10:16:14.853Z,10.60
2022-11-26T10:17:40.888Z,10.70
2022-11-26T10:19:04.889Z,10.70
2022-11-26T10:20:51.888Z,10.80
2022-11-26T10:22:20.330Z,10.90
2022-11-26T10:23:43.138Z,10.90
2022-11-26T10:25:11.104Z,10.90
2022-11-26T10:26:34.480Z,11.00
2022-11-26T10:27:56.020Z,11.00
2022-11-26T10:29:18.601Z,11.00
2022-11-26T10:30:40.271Z,11.00
2022-11-26T10:32:10.135Z,11.00
2022-11-26T10:33:34.060Z,11.00
2022-11-26T10:34:56.775Z,11.10
2022-11-26T10:36:22.152Z,11.10
2022-11-26T10:37:42.656Z,11.10
2022-11-26T10:39:03.875Z,11.10
2022-11-26T10:40:25.906Z,11.10
2022-11-26T10:41:47.145Z,11.10
2022-11-26T10:43:13.914Z,11.10
2022-11-26T10:44:37.151Z,11.20
2022-11-26T10:45:59.331Z,11.30
2022-11-26T10:47:26.220Z,11.30
2022-11-26T10:48:46.697Z,11.30
2022-11-26T10:50:46.090Z,11.40
2022-11-26T10:52:01.887Z,11.40
2022-11-26T10:53:23.189Z,11.40
2022-11-26T10:54:43.904Z,11.40
2022-11-26T10:56:06.419Z,11.40
2022-11-26T10:57:26.676Z,11.40
2022-11-26T10:58:48.477Z,11.50
2022-11-26T11:00:36.596Z,11.50
2022-11-26T11:02:02.463Z,11.50
2022-11-26T11:03:44.540Z,11.60
2022-11-26T11:05:05.781Z,11.60
2022-11-26T11:06:35.012Z,11.60
2022-11-26T11:07:56.095Z,11.60
2022-11-26T11:09:28.557Z,11.60
2022-11-26T11:10:56.896Z,11.70
2022-11-26T11:12:20.531Z,11.70
2022-11-26T11:13:42.793Z,11.50
2022-11-26T11:15:23.001Z,11.60
2022-11-26T11:16:44.497Z,11.60
2022-11-26T11:18:13.040Z,11.70
2022-11-26T11:19:33.981Z,11.70
2022-11-26T11:20:55.822Z,11.70
2022-11-26T11:22:18.640Z,11.70
2022-11-26T11:25:24.109Z,11.70
2022-11-26T11:26:45.821Z,11.60
2022-11-26T11:28:12.259Z,11.70
2022-11-26T11:29:34.792Z,11.70
2022-11-26T11:31:13.812Z,11.70
2022-11-26T11:32:36.780Z,11.70
2022-11-26T11:34:19.246Z,11.60
2022-11-26T11:35:39.808Z,11.70
2022-11-26T11:37:01.508Z,11.60
2022-11-26T11:38:24.150Z,11.70
2022-11-26T11:39:44.779Z,11.70
2022-11-26T11:41:13.606Z,11.70
2022-11-26T11:42:34.050Z,11.70
2022-11-26T11:44:03.848Z,11.70
2022-11-26T11:45:33.182Z,11.80
2022-11-26T11:47:09.246Z,11.80
2022-11-26T11:48:37.392Z,11.80
2022-11-26T11:50:12.244Z,11.80
2022-11-26T11:51:39.256Z,11.80
2022-11-26T11:53:15.868Z,11.80
2022-11-26T11:54:45.612Z,11.80
2022-11-26T11:56:19.357Z,11.80
2022-11-26T11:57:52.939Z,11.80
2022-11-26T11:59:31.953Z,11.90
2022-11-26T12:00:54.564Z,11.90
2022-11-26T12:02:28.839Z,11.90
2022-11-26T12:04:17.927Z,12.00
2022-11-26T12:05:54.753Z,12.10
2022-11-26T12:07:30.322Z,12.00
2022-11-26T12:09:00.737Z,12.10
2022-11-26T12:10:25.438Z,12.20
2022-11-26T12:11:53.510Z,12.30
2022-11-26T12:13:15.537Z,12.40
2022-11-26T12:14:36.289Z,12.30
2022-11-26T12:16:01.830Z,12.30
2022-11-26T12:17:33.092Z,12.30
2022-11-26T12:18:58.146Z,12.20
2022-11-26T12:20:23.522Z,12.30
2022-11-26T12:21:48.169Z,12.40
2022-11-26T12:23:24.392Z,12.50
2022-11-26T12:24:48.125Z,12.50
2022-11-26T12:26:13.278Z,12.60
2022-11-26T12:27:37.667Z,12.70
2022-11-26T12:29:02.115Z,12.70
2022-11-26T12:30:25.244Z,12.60
2022-11-26T12:31:48.807Z,12.60
2022-11-26T12:33:13.451Z,12.60
2022-11-26T12:34:37.150Z,12.60
2022-11-26T12:36:00.784Z,12.60
2022-11-26T12:37:25.059Z,12.60
2022-11-26T12:38:49.332Z,12.60
2022-11-26T12:40:19.401Z,12.50
2022-11-26T12:41:43.922Z,12.40
2022-11-26T12:43:09.766Z,12.40
2022-11-26T12:44:32.782Z,12.40
2022-11-26T12:45:56.711Z,12.50
2022-11-26T12:47:21.641Z,12.50
2022-11-26T12:48:45.711Z,12.50
2022-11-26T12:50:15.496Z,12.50
2022-11-26T12:51:41.134Z,12.50
2022-11-26T12:53:23.752Z,12.60
2022-11-26T12:54:48.886Z,12.60
2022-11-26T12:56:16.399Z,12.80
2022-11-26T12:57:39.331Z,12.90
2022-11-26T12:59:03.468Z,12.80
2022-11-26T13:00:32.725Z,12.80
2022-11-26T13:01:57.007Z,12.90
2022-11-26T13:03:18.757Z,13.00
2022-11-26T13:04:39.485Z,13.10
2022-11-26T13:06:04.789Z,13.10
2022-11-26T13:07:40.886Z,13.10
2022-11-26T13:09:12.100Z,13.30
2022-11-26T13:10:53.139Z,13.30
2022-11-26T13:12:18.076Z,13.40
2022-11-26T13:13:43.955Z,13.50
2022-11-26T13:15:07.309Z,13.60
2022-11-26T13:16:31.701Z,13.60
2022-11-26T13:17:52.437Z,13.70
2022-11-26T13:19:22.019Z,13.70
2022-11-26T13:20:54.308Z,13.70
2022-11-26T13:22:23.787Z,13.80
2022-11-26T13:23:56.003Z,13.80
2022-11-26T13:25:49.813Z,13.80
2022-11-26T13:27:27.244Z,13.80
2022-11-26T13:28:59.717Z,13.80
2022-11-26T13:30:21.170Z,13.80
2022-11-26T13:31:55.079Z,13.70
2022-11-26T13:33:49.603Z,13.70
2022-11-26T13:35:18.345Z,13.50
2022-11-26T13:36:57.687Z,13.60
2022-11-26T13:38:21.411Z,13.50
2022-11-26T13:40:01.766Z,13.50
2022-11-26T13:41:33.269Z,13.50
2022-11-26T13:42:59.821Z,13.50
2022-11-26T13:45:02.505Z,13.50
2022-11-26T13:46:25.101Z,13.60
2022-11-26T13:47:47.815Z,13.60
2022-11-26T13:49:11.828Z,13.60
2022-11-26T13:50:35.223Z,13.80
2022-11-26T13:51:59.227Z,13.80
2022-11-26T13:53:26.577Z,13.80
2022-11-26T13:54:50.465Z,13.70
2022-11-26T13:56:11.425Z,13.60
2022-11-26T13:57:39.956Z,13.70
2022-11-26T13:59:05.817Z,13.80
2022-11-26T14:00:28.789Z,13.90
2022-11-26T14:01:49.649Z,13.90
2022-11-26T14:03:44.030Z,13.90
2022-11-26T14:05:06.773Z,13.90
2022-11-26T14:06:27.099Z,14.00
2022-11-26T14:07:47.468Z,14.10
2022-11-26T14:09:45.729Z,14.10
2022-11-26T14:11:06.887Z,14.10
2022-11-26T14:13:00.339Z,14.20
2022-11-26T14:14:36.912Z,14.00
2022-11-26T14:15:59.927Z,14.10
2022-11-26T14:17:25.103Z,14.10
2022-11-26T14:18:57.027Z,14.00
2022-11-26T14:20:17.028Z,14.00
2022-11-26T14:21:58.584Z,14.00
2022-11-26T14:23:43.614Z,14.10
2022-11-26T14:25:09.620Z,14.20
2022-11-26T14:26:32.409Z,14.10
2022-11-26T14:27:54.945Z,14.10
2022-11-26T14:29:15.844Z,14.10
2022-11-26T14:30:37.885Z,14.20
2022-11-26T14:31:58.263Z,14.30
2022-11-26T14:33:24.113Z,14.40
2022-11-26T14:34:49.342Z,14.30
2022-11-26T14:36:19.520Z,14.30
2022-11-26T14:37:51.254Z,14.30
2022-11-26T14:39:15.739Z,14.20
2022-11-26T14:40:38.027Z,14.10
2022-11-26T14:42:05.651Z,14.10
2022-11-26T14:43:26.865Z,13.90
2022-11-26T14:44:47.174Z,13.70
2022-11-26T14:46:13.452Z,13.80
2022-11-26T14:47:33.929Z,13.80
2022-11-26T14:48:59.661Z,13.60
2022-11-26T14:50:23.972Z,13.60
2022-11-26T14:51:44.923Z,13.50
2022-11-26T14:53:06.155Z,13.40
2022-11-26T14:54:30.654Z,13.50
2022-11-26T14:55:52.196Z,13.50
2022-11-26T14:57:15.096Z,13.50
2022-11-26T14:58:38.156Z,13.40
2022-11-26T15:00:00.047Z,13.30
2022-11-26T15:01:23.320Z,13.20
2022-11-26T15:02:45.404Z,13.20
2022-11-26T15:04:07.205Z,13.30
2022-11-26T15:05:29.249Z,13.30
2022-11-26T15:06:49.893Z,13.20
2022-11-26T15:08:16.720Z,13.20
2022-11-26T15:09:37.440Z,13.30
2022-11-26T15:11:02.663Z,13.20
2022-11-26T15:12:23.145Z,13.10
2022-11-26T15:13:45.243Z,13.20
2022-11-26T15:15:06.812Z,13.10
2022-11-26T15:16:32.279Z,12.90
2022-11-26T15:17:55.919Z,12.90
2022-11-26T15:19:16.449Z,13.00
2022-11-26T15:20:36.693Z,13.00
2022-11-26T15:21:57.044Z,12.90
2022-11-26T15:23:18.998Z,12.90
2022-11-26T15:24:40.714Z,12.90
2022-11-26T15:26:03.137Z,12.90
2022-11-26T15:27:28.163Z,12.90
2022-11-26T15:28:49.474Z,13.00
2022-11-26T15:30:19.857Z,12.90
2022-11-26T15:31:42.735Z,12.90
2022-11-26T15:33:04.433Z,12.80
2022-11-26T15:34:25.013Z,12.80
2022-11-26T15:35:45.327Z,12.80
2022-11-26T15:37:06.401Z,12.80
2022-11-26T15:38:28.708Z,12.80
2022-11-26T15:40:07.496Z,12.70
2022-11-26T15:41:28.149Z,12.70
2022-11-26T15:42:49.914Z,12.70
2022-11-26T15:44:20.244Z,12.70
2022-11-26T15:45:41.157Z,12.70
2022-11-26T15:47:03.102Z,12.70
2022-11-26T15:48:50.087Z,12.70
2022-11-26T15:50:19.000Z,12.70
2022-11-26T15:51:42.425Z,12.50
2022-11-26T15:53:05.821Z,12.60
2022-11-26T15:54:43.338Z,12.50
2022-11-26T15:56:04.841Z,12.60
2022-11-26T15:57:28.353Z,12.60
2022-11-26T15:58:52.212Z,12.60
2022-11-26T16:00:21.444Z,12.60
2022-11-26T16:01:44.624Z,12.60
2022-11-26T16:03:33.907Z,12.50
2022-11-26T16:04:55.323Z,12.50
2022-11-26T16:06:27.300Z,12.50
2022-11-26T16:07:56.883Z,12.50
2022-11-26T16:09:27.953Z,12.40
2022-11-26T16:10:54.931Z,12.50
2022-11-26T16:12:30.410Z,12.50
2022-11-26T16:13:51.019Z,12.50
2022-11-26T16:15:22.201Z,12.50
2022-11-26T16:16:42.491Z,12.50
2022-11-26T16:18:11.860Z,12.50
2022-11-26T16:19:33.020Z,12.50
2022-11-26T16:21:02.335Z,12.50
2022-11-26T16:22:28.301Z,12.50
2022-11-26T16:23:52.166Z,12.50
2022-11-26T16:25:20.523Z,12.40
2022-11-26T16:26:53.493Z,12.40
2022-11-26T16:28:15.064Z,12.40
2022-11-26T16:29:35.549Z,12.50
2022-11-26T16:30:56.290Z,12.40
2022-11-26T16:32:17.656Z,12.40
2022-11-26T16:33:39.988Z,12.40
2022-11-26T16:35:12.262Z,12.40
2022-11-26T16:36:42.296Z,12.30
2022-11-26T16:38:02.820Z,12.40
2022-11-26T16:39:27.427Z,12.30
2022-11-26T16:40:51.032Z,12.30
2022-11-26T16:42:14.273Z,12.30
2022-11-26T16:43:34.873Z,12.30
2022-11-26T16:44:57.983Z,12.30
2022-11-26T16:46:22.284Z,12.30
2022-11-26T16:47:45.562Z,12.20
2022-11-26T16:49:07.377Z,12.30
2022-11-26T16:50:28.179Z,12.30
2022-11-26T16:51:48.661Z,12.30
2022-11-26T16:53:09.640Z,12.30
2022-11-26T16:54:30.022Z,12.20
2022-11-26T16:55:50.851Z,12.30
2022-11-26T16:57:14.468Z,12.20
2022-11-26T16:58:36.496Z,12.20
2022-11-26T17:00:02.616Z,12.20
2022-11-26T17:01:22.853Z,12.20
2022-11-26T17:02:43.803Z,12.20
2022-11-26T17:04:04.158Z,12.20
2022-11-26T17:05:26.097Z,12.00
2022-11-26T17:06:46.963Z,12.00
2022-11-26T17:08:11.111Z,12.00
2022-11-26T17:09:31.815Z,11.90
2022-11-26T17:10:52.759Z,11.90
2022-11-26T17:12:17.364Z,11.90
2022-11-26T17:13:37.596Z,12.00
2022-11-26T17:14:58.159Z,12.00
2022-11-26T17:16:20.628Z,12.00
2022-11-26T17:17:41.812Z,12.00
2022-11-26T17:19:02.377Z,12.00
2022-11-26T17:20:24.153Z,12.00
2022-11-26T17:21:45.853Z,12.00
2022-11-26T17:23:06.472Z,11.90
2022-11-26T17:24:30.000Z,11.90
2022-11-26T17:25:53.761Z,11.90
2022-11-26T17:27:16.773Z,11.90
2022-11-26T17:28:37.223Z,11.90
2022-11-26T17:29:57.596Z,12.00
2022-11-26T17:31:18.238Z,12.00
2022-11-26T17:32:38.745Z,11.90
2022-11-26T17:33:59.236Z,12.00
2022-11-26T17:35:19.932Z,12.00
2022-11-26T17:36:40.356Z,11.90
2022-11-26T17:38:02.621Z,11.90
2022-11-26T17:39:22.948Z,11.80
2022-11-26T17:40:43.551Z,11.90
2022-11-26T17:42:04.240Z,11.80
2022-11-26T17:43:24.482Z,11.80
2022-11-26T17:44:45.028Z,11.90
2022-11-26T17:46:08.697Z,11.90
2022-11-26T17:47:29.397Z,11.80
2022-11-26T17:48:54.420Z,11.90
2022-11-26T17:50:21.406Z,11.90
2022-11-26T17:51:42.018Z,11.80
2022-11-26T17:53:03.601Z,11.80
2022-11-26T17:54:24.256Z,11.80
2022-11-26T17:55:44.910Z,11.70
2022-11-26T17:57:06.389Z,11.70
2022-11-26T17:58:26.932Z,11.70
2022-11-26T17:59:47.356Z,11.80
2022-11-26T18:01:08.062Z,11.80
2022-11-26T18:02:28.950Z,11.80
2022-11-26T18:03:49.226Z,11.80
2022-11-26T18:05:09.979Z,11.90
2022-11-26T18:06:37.281Z,11.80
2022-11-26T18:07:58.013Z,11.70
2022-11-26T18:09:20.450Z,11.70
2022-11-26T18:10:40.804Z,11.70
2022-11-26T18:12:01.381Z,11.70
2022-11-26T18:13:21.645Z,11.70
2022-11-26T18:14:42.432Z,11.50
2022-11-26T18:16:03.883Z,11.50
2022-11-26T18:17:24.990Z,11.60
2022-11-26T18:18:45.447Z,11.50
2022-11-26T18:20:07.344Z,11.50